createdAt,value
2023-03-17T00:01:51.173Z,2.42
2023-03-17T00:04:25.387Z,2.25
2023-03-17T00:06:52.838Z,3.03
2023-03-17T00:09:21.178Z,2.90
2023-03-17T00:11:48.171Z,2.60
2023-03-17T00:14:14.890Z,2.72
2023-03-17T00:16:45.273Z,2.47
2023-03-17T00:19:21.596Z,2.58
2023-03-17T00:21:49.063Z,2.67
2023-03-17T00:24:15.967Z,3.00
2023-03-17T00:26:43.174Z,2.97
2023-03-17T00:29:09.816Z,2.55
2023-03-17T00:31:37.914Z,2.63
2023-03-17T00:34:04.641Z,2.80
2023-03-17T00:36:32.988Z,2.53
2023-03-17T00:38:59.859Z,2.78
2023-03-17T00:41:27.187Z,2.60
2023-03-17T00:43:53.981Z,3.00
2023-03-17T00:46:28.074Z,2.47
2023-03-17T00:48:55.110Z,2.50
2023-03-17T00:51:23.207Z,2.75
2023-03-17T00:53:49.814Z,3.20
2023-03-17T00:56:19.108Z,2.63
2023-03-17T00:58:46.474Z,3.03
2023-03-17T01:01:13.605Z,2.40
2023-03-17T01:03:40.210Z,2.50
2023-03-17T01:06:08.695Z,2.42
2023-03-17T01:08:35.183Z,2.57
2023-03-17T01:11:01.938Z,2.70
2023-03-17T01:13:29.132Z,3.08
2023-03-17T01:15:57.011Z,3.28
2023-03-17T01:18:24.102Z,3.05
2023-03-17T01:20:51.152Z,2.90
2023-03-17T01:23:18.124Z,3.47
2023-03-17T01:25:45.276Z,3.20
2023-03-17T01:28:16.760Z,3.38
2023-03-17T01:30:43.603Z,3.08
2023-03-17T01:33:11.244Z,2.67
2023-03-17T01:35:39.117Z,2.75
2023-03-17T01:38:06.273Z,2.97
2023-03-17T01:40:35.698Z,2.85
2023-03-17T01:46:15.173Z,2.85
2023-03-17T01:49:09.411Z,3.10
2023-03-17T01:51:57.424Z,3.30
2023-03-17T01:54:30.736Z,3.00
2023-03-17T01:57:03.819Z,3.38
2023-03-17T01:59:36.459Z,3.00
2023-03-17T02:02:06.381Z,3.45
2023-03-17T02:04:34.449Z,2.75
2023-03-17T02:07:02.494Z,3.35
2023-03-17T02:09:29.311Z,3.00
2023-03-17T02:11:56.894Z,2.83
2023-03-17T02:14:23.734Z,3.60
2023-03-17T02:16:50.238Z,2.70
2023-03-17T02:19:17.010Z,2.92
2023-03-17T02:21:47.559Z,3.03
2023-03-17T02:24:45.929Z,3.20
2023-03-17T02:27:19.508Z,3.30
2023-03-17T02:29:46.428Z,3.22
2023-03-17T02:32:17.694Z,3.03
2023-03-17T02:34:46.248Z,3.33
2023-03-17T02:37:13.664Z,3.30
2023-03-17T02:39:40.156Z,3.05
2023-03-17T02:42:07.311Z,3.08
2023-03-17T02:44:33.806Z,3.15
2023-03-17T02:47:00.895Z,3.38
2023-03-17T02:49:28.264Z,3.10
2023-03-17T02:51:54.761Z,3.15
2023-03-17T02:54:21.308Z,3.13
2023-03-17T02:56:47.734Z,3.17
2023-03-17T02:59:14.273Z,3.30
2023-03-17T03:01:40.740Z,3.25
2023-03-17T03:04:07.670Z,3.35
2023-03-17T03:06:34.477Z,3.33
2023-03-17T03:09:00.970Z,3.30
2023-03-17T03:11:29.219Z,3.15
2023-03-17T03:13:56.151Z,3.25
2023-03-17T03:16:22.592Z,3.20
2023-03-17T03:18:49.109Z,3.22
2023-03-17T03:21:15.521Z,3.38
2023-03-17T03:23:43.216Z,3.38
2023-03-17T03:26:09.670Z,3.38
2023-03-17T03:28:36.328Z,3.17
2023-03-17T03:31:02.916Z,3.35
2023-03-17T03:33:29.522Z,3.33
2023-03-17T03:35:56.045Z,3.60
2023-03-17T03:38:22.638Z,3.42
2023-03-17T03:40:49.199Z,3.35
2023-03-17T03:43:22.819Z,3.63
2023-03-17T03:45:50.358Z,3.28
2023-03-17T03:48:16.909Z,3.35
2023-03-17T03:50:43.735Z,3.58
2023-03-17T03:53:10.218Z,3.33
2023-03-17T03:55:37.059Z,3.40
2023-03-17T03:58:03.660Z,3.35
2023-03-17T04:00:30.293Z,3.10
2023-03-17T04:02:56.936Z,3.30
2023-03-17T04:05:23.376Z,3.38
2023-03-17T04:07:50.010Z,3.60
2023-03-17T04:10:16.902Z,3.63
2023-03-17T04:12:44.141Z,3.80
2023-03-17T04:15:14.457Z,3.90
2023-03-17T04:17:41.444Z,4.15
2023-03-17T04:20:08.526Z,4.30
2023-03-17T04:22:35.171Z,3.55
2023-03-17T04:25:01.618Z,3.83
2023-03-17T04:27:28.283Z,3.90
2023-03-17T04:29:54.752Z,3.53
2023-03-17T04:32:21.853Z,4.22
2023-03-17T04:34:48.350Z,3.67
2023-03-17T04:37:14.840Z,3.50
2023-03-17T04:39:41.984Z,3.83
2023-03-17T04:42:08.441Z,3.67
2023-03-17T04:44:34.889Z,4.18
2023-03-17T04:47:01.335Z,3.60
2023-03-17T04:49:28.331Z,3.92
2023-03-17T04:51:55.038Z,3.83
2023-03-17T04:54:21.824Z,3.90
2023-03-17T04:56:48.330Z,3.50
2023-03-17T04:59:16.206Z,3.80
2023-03-17T05:01:42.668Z,4.60
2023-03-17T05:04:11.185Z,3.88
2023-03-17T05:06:39.415Z,3.92
2023-03-17T05:09:05.897Z,3.70
2023-03-17T05:11:32.300Z,4.07
2023-03-17T05:13:58.761Z,4.28
2023-03-17T05:16:25.192Z,3.60
2023-03-17T05:18:51.680Z,3.92
2023-03-17T05:21:18.101Z,3.92
2023-03-17T05:23:44.578Z,4.20
2023-03-17T05:26:10.990Z,4.03
2023-03-17T05:28:37.494Z,4.07
2023-03-17T05:31:04.085Z,4.10
2023-03-17T05:33:30.745Z,4.00
2023-03-17T05:35:57.350Z,4.05
2023-03-17T05:38:24.012Z,3.55
2023-03-17T05:40:51.457Z,4.07
2023-03-17T05:43:18.274Z,4.28
2023-03-17T05:45:45.478Z,3.92
2023-03-17T05:48:13.071Z,3.42
2023-03-17T05:50:40.051Z,3.95
2023-03-17T05:53:06.539Z,3.30
2023-03-17T05:55:33.017Z,4.07
2023-03-17T05:58:00.876Z,3.83
2023-03-17T06:00:29.301Z,4.07
2023-03-17T06:02:56.178Z,4.43
2023-03-17T06:05:22.707Z,3.80
2023-03-17T06:07:54.914Z,3.65
2023-03-17T06:10:23.673Z,4.03
2023-03-17T06:12:50.374Z,3.70
2023-03-17T06:15:17.047Z,4.15
2023-03-17T06:17:43.679Z,3.50
2023-03-17T06:20:11.568Z,3.53
2023-03-17T06:22:39.712Z,3.55
2023-03-17T06:25:10.214Z,3.83
2023-03-17T06:27:37.917Z,3.70
2023-03-17T06:30:06.666Z,3.90
2023-03-17T06:32:33.877Z,3.80
2023-03-17T06:35:01.340Z,3.70
2023-03-17T06:37:29.067Z,3.58
2023-03-17T06:39:57.667Z,3.75
2023-03-17T06:42:24.130Z,3.70
2023-03-17T06:44:52.574Z,3.95
2023-03-17T06:47:19.700Z,3.70
2023-03-17T06:49:46.445Z,3.70
2023-03-17T06:52:14.063Z,4.00
2023-03-17T06:54:41.263Z,3.90
2023-03-17T06:57:08.001Z,3.20
2023-03-17T06:59:34.425Z,3.80
2023-03-17T07:02:01.061Z,4.13
2023-03-17T07:04:27.680Z,3.80
2023-03-17T07:06:54.438Z,3.92
2023-03-17T07:09:21.975Z,3.65
2023-03-17T07:11:48.483Z,3.53
2023-03-17T07:14:15.320Z,3.60
2023-03-17T07:16:41.878Z,3.92
2023-03-17T07:19:08.383Z,4.10
2023-03-17T07:21:34.859Z,3.65
2023-03-17T07:24:01.822Z,3.67
2023-03-17T07:26:28.547Z,3.35
2023-03-17T07:28:55.067Z,3.80
2023-03-17T07:31:21.580Z,3.80
2023-03-17T07:33:48.052Z,4.05
2023-03-17T07:36:15.820Z,3.95
2023-03-17T07:38:43.183Z,3.47
2023-03-17T07:41:10.690Z,3.72
2023-03-17T07:43:38.107Z,4.10
2023-03-17T07:46:06.384Z,3.95
2023-03-17T07:48:33.399Z,4.00
2023-03-17T07:51:00.444Z,3.53
2023-03-17T07:53:26.921Z,3.90
2023-03-17T07:55:53.477Z,3.63
2023-03-17T07:58:20.225Z,3.67
2023-03-17T08:00:47.244Z,3.88
2023-03-17T08:03:13.832Z,4.13
2023-03-17T08:05:40.962Z,3.40
2023-03-17T08:08:07.419Z,4.05
2023-03-17T08:10:34.310Z,4.35
2023-03-17T08:13:01.334Z,3.65
2023-03-17T08:15:27.814Z,3.67
2023-03-17T08:17:54.265Z,3.70
2023-03-17T08:20:21.715Z,3.58
2023-03-17T08:22:48.247Z,3.70
2023-03-17T08:25:14.902Z,3.60
2023-03-17T08:27:42.284Z,4.45
2023-03-17T08:30:09.586Z,4.45
2023-03-17T08:32:36.500Z,3.83
2023-03-17T08:35:02.969Z,3.30
2023-03-17T08:37:29.463Z,3.33
2023-03-17T08:39:56.029Z,3.40
2023-03-17T08:42:22.588Z,2.75
2023-03-17T08:44:49.343Z,2.85
2023-03-17T08:47:16.165Z,2.70
2023-03-17T08:49:43.696Z,2.72
2023-03-17T08:52:11.033Z,2.67
2023-03-17T08:54:37.759Z,2.83
2023-03-17T08:57:04.219Z,3.15
2023-03-17T08:59:30.763Z,2.70
2023-03-17T09:01:57.297Z,2.53
2023-03-17T09:04:23.851Z,2.50
2023-03-17T09:07:02.726Z,2.70
2023-03-17T09:09:31.102Z,2.58
2023-03-17T09:11:58.363Z,2.88
2023-03-17T09:14:25.013Z,2.70
2023-03-17T09:16:52.259Z,2.83
2023-03-17T09:19:18.932Z,2.30
2023-03-17T09:21:45.786Z,2.60
2023-03-17T09:24:13.655Z,2.30
2023-03-17T09:26:40.536Z,2.30
2023-03-17T09:29:07.168Z,2.50
2023-03-17T09:31:36.330Z,2.28
2023-03-17T09:34:05.120Z,2.72
2023-03-17T09:36:33.088Z,2.70
2023-03-17T09:39:00.330Z,2.45
2023-03-17T09:41:49.291Z,2.80
2023-03-17T09:44:25.544Z,2.65
2023-03-17T09:47:19.566Z,2.20
2023-03-17T09:49:57.324Z,2.47
2023-03-17T09:52:34.514Z,2.30
2023-03-17T09:55:03.661Z,2.35
2023-03-17T09:57:36.235Z,2.42
2023-03-17T10:00:11.916Z,2.47
2023-03-17T10:02:38.511Z,2.47
2023-03-17T10:05:17.146Z,2.25
2023-03-17T10:07:55.991Z,2.38
2023-03-17T10:10:30.291Z,1.95
2023-03-17T10:13:10.372Z,2.72
2023-03-17T10:16:01.852Z,2.38
2023-03-17T10:18:32.892Z,1.90
2023-03-17T10:21:04.367Z,2.10
2023-03-17T10:23:33.678Z,1.90
2023-03-17T10:26:13.647Z,2.22
2023-03-17T10:28:40.310Z,2.10
2023-03-17T10:31:15.666Z,2.35
2023-03-17T10:33:46.566Z,2.40
2023-03-17T10:36:17.460Z,2.50
2023-03-17T10:38:56.064Z,2.45
2023-03-17T10:41:23.075Z,2.30
2023-03-17T10:43:54.458Z,2.22
2023-03-17T10:46:24.301Z,2.63
2023-03-17T10:48:54.793Z,2.38
2023-03-17T10:51:30.529Z,2.38
2023-03-17T10:54:00.280Z,2.97
2023-03-17T10:56:30.813Z,2.20
2023-03-17T10:59:04.735Z,2.20
2023-03-17T11:01:44.064Z,2.50
2023-03-17T11:04:30.796Z,2.35
2023-03-17T11:06:58.803Z,2.25
2023-03-17T11:09:27.972Z,2.40
2023-03-17T11:12:08.730Z,2.80
2023-03-17T11:14:35.455Z,2.55
2023-03-17T11:17:19.301Z,2.35
2023-03-17T11:20:04.386Z,2.08
2023-03-17T11:23:03.287Z,1.98
2023-03-17T11:25:31.972Z,2.40
2023-03-17T11:28:12.042Z,2.37
2023-03-17T11:30:50.545Z,2.13
2023-03-17T11:33:38.346Z,2.30
2023-03-17T11:36:30.666Z,2.20
2023-03-17T11:39:10.932Z,2.47
2023-03-17T11:41:53.684Z,2.42
2023-03-17T11:44:23.491Z,2.25
2023-03-17T11:47:32.084Z,2.85
2023-03-17T11:50:12.253Z,2.10
2023-03-17T11:53:21.086Z,2.42
2023-03-17T11:55:51.659Z,2.50
2023-03-17T11:58:46.480Z,2.40
2023-03-17T12:01:18.056Z,2.33
2023-03-17T12:04:09.029Z,2.60
2023-03-17T12:06:42.817Z,1.98
2023-03-17T12:09:27.699Z,2.10
2023-03-17T12:11:55.935Z,2.58
2023-03-17T12:14:30.675Z,1.95
2023-03-17T12:17:05.184Z,1.75
2023-03-17T12:19:59.282Z,1.80
2023-03-17T12:22:33.638Z,2.03
2023-03-17T12:25:34.986Z,2.20
2023-03-17T12:28:16.075Z,2.10
2023-03-17T12:31:21.531Z,1.83
2023-03-17T12:34:04.040Z,2.00
2023-03-17T12:36:31.129Z,2.47
2023-03-17T12:39:02.077Z,1.98
2023-03-17T12:41:42.853Z,2.28
2023-03-17T12:44:44.634Z,2.28
2023-03-17T12:47:45.263Z,1.80
2023-03-17T12:50:36.745Z,1.95
2023-03-17T12:53:12.310Z,2.10
2023-03-17T12:55:39.329Z,1.75
2023-03-17T12:58:28.740Z,1.85
2023-03-17T13:03:45.394Z,1.80
2023-03-17T13:06:19.741Z,2.30
2023-03-17T13:08:46.712Z,2.10
2023-03-17T13:11:27.624Z,2.00
2023-03-17T13:13:54.373Z,2.15
2023-03-17T13:16:37.056Z,2.20
2023-03-17T13:19:14.511Z,2.25
2023-03-17T13:21:48.774Z,2.03
2023-03-17T13:24:18.678Z,1.88
2023-03-17T13:26:55.347Z,1.63
2023-03-17T13:29:33.785Z,2.33
2023-03-17T13:32:15.517Z,2.10
2023-03-17T13:34:48.725Z,2.03
2023-03-17T13:37:37.226Z,2.20
2023-03-17T13:40:57.935Z,2.40
2023-03-17T13:43:44.488Z,2.08
2023-03-17T13:46:37.448Z,1.98
2023-03-17T13:49:15.058Z,1.90
2023-03-17T13:51:52.771Z,2.35
2023-03-17T13:54:28.560Z,2.20
2023-03-17T13:56:59.281Z,2.20
2023-03-17T13:59:53.740Z,1.98
2023-03-17T14:02:27.124Z,2.10
2023-03-17T14:04:58.182Z,1.98
2023-03-17T14:07:37.017Z,2.58
2023-03-17T14:10:05.352Z,2.10
2023-03-17T14:13:11.272Z,2.40
2023-03-17T14:15:47.893Z,2.00
2023-03-17T14:18:28.010Z,2.10
2023-03-17T14:20:57.403Z,1.73
2023-03-17T14:23:25.062Z,1.90
2023-03-17T14:25:54.877Z,2.45
2023-03-17T14:28:27.365Z,1.83
2023-03-17T14:31:19.903Z,2.28
2023-03-17T14:33:46.514Z,2.22
2023-03-17T14:36:14.609Z,2.05
2023-03-17T14:38:48.924Z,2.13
2023-03-17T14:41:15.556Z,2.17
2023-03-17T14:43:43.881Z,2.20
2023-03-17T14:46:19.236Z,2.03
2023-03-17T14:48:48.763Z,1.95
2023-03-17T14:53:56.747Z,2.47
2023-03-17T14:56:31.264Z,1.90
2023-03-17T14:59:16.804Z,2.25
2023-03-17T15:01:47.421Z,2.40
2023-03-17T15:04:49.295Z,2.25
2023-03-17T15:07:29.219Z,4.00
2023-03-17T15:10:02.350Z,2.78
2023-03-17T15:12:30.167Z,2.45
2023-03-17T15:15:06.297Z,2.17
2023-03-17T15:17:37.234Z,2.45
2023-03-17T15:20:16.209Z,2.03
2023-03-17T15:22:48.407Z,2.13
2023-03-17T15:25:20.029Z,2.75
2023-03-17T15:27:47.693Z,2.10
2023-03-17T15:30:14.490Z,2.13
2023-03-17T15:32:41.197Z,2.00
2023-03-17T15:35:12.599Z,1.63
2023-03-17T15:37:39.323Z,2.03
2023-03-17T15:40:06.828Z,2.17
2023-03-17T15:42:35.739Z,1.98
2023-03-17T15:45:03.635Z,1.77
2023-03-17T15:47:36.865Z,2.00
2023-03-17T15:50:16.329Z,2.10
2023-03-17T15:52:44.058Z,2.15
2023-03-17T15:55:22.849Z,1.80
2023-03-17T15:57:56.683Z,1.98
2023-03-17T16:00:29.029Z,1.85
2023-03-17T16:02:59.562Z,2.35
2023-03-17T16:05:29.222Z,2.50
2023-03-17T16:07:55.747Z,2.28
2023-03-17T16:10:25.602Z,2.35
2023-03-17T16:12:52.494Z,2.38
2023-03-17T16:15:27.862Z,2.30
2023-03-17T16:17:58.296Z,2.70
2023-03-17T16:20:54.341Z,2.22
2023-03-17T16:23:27.503Z,2.03
2023-03-17T16:25:59.267Z,2.25
2023-03-17T16:28:32.495Z,2.50
2023-03-17T16:31:01.078Z,2.20
2023-03-17T16:33:32.216Z,2.20
2023-03-17T16:36:00.389Z,2.78
2023-03-17T16:38:30.806Z,2.55
2023-03-17T16:41:06.242Z,2.30
2023-03-17T16:43:37.786Z,2.13
2023-03-17T16:46:06.063Z,2.53
2023-03-17T16:48:33.213Z,2.10
2023-03-17T16:51:00.860Z,2.55
2023-03-17T16:53:27.371Z,2.30
2023-03-17T16:55:55.358Z,2.20
2023-03-17T16:58:26.152Z,2.03
2023-03-17T17:00:57.563Z,2.38
2023-03-17T17:03:24.235Z,2.55
2023-03-17T17:05:50.938Z,2.50
2023-03-17T17:08:17.423Z,2.60
2023-03-17T17:10:43.886Z,2.83
2023-03-17T17:13:11.962Z,2.58
2023-03-17T17:15:39.271Z,3.50
2023-03-17T17:18:11.288Z,3.70
2023-03-17T17:20:39.425Z,3.20
2023-03-17T17:23:10.407Z,3.70
2023-03-17T17:25:36.898Z,3.97
2023-03-17T17:28:03.721Z,3.60
2023-03-17T17:30:30.954Z,3.90
2023-03-17T17:33:00.341Z,4.78
2023-03-17T17:35:31.234Z,3.35
2023-03-17T17:37:59.326Z,2.90
2023-03-17T17:40:26.061Z,2.95
2023-03-17T17:42:53.626Z,2.95
2023-03-17T17:45:21.329Z,3.13
2023-03-17T17:47:48.277Z,3.20
2023-03-17T17:50:33.507Z,2.80
2023-03-17T17:53:05.222Z,3.42
2023-03-17T17:55:33.329Z,3.67
2023-03-17T17:58:00.285Z,3.72
2023-03-17T18:00:26.874Z,3.42
2023-03-17T18:02:53.297Z,3.25
2023-03-17T18:05:28.741Z,3.70
2023-03-17T18:07:55.147Z,2.90
2023-03-17T18:10:25.744Z,3.28
2023-03-17T18:12:53.345Z,4.32
2023-03-17T18:15:21.905Z,5.95
2023-03-17T18:17:49.113Z,4.73
2023-03-17T18:20:18.252Z,8.32
2023-03-17T18:22:44.923Z,9.38
2023-03-17T18:25:12.833Z,11.98
2023-03-17T18:27:39.771Z,10.77
2023-03-17T18:30:08.748Z,10.18
2023-03-17T18:32:35.509Z,5.63
2023-03-17T18:35:06.774Z,4.88
2023-03-17T18:37:33.698Z,5.28
2023-03-17T18:40:13.490Z,5.53
2023-03-17T18:42:41.894Z,4.45
2023-03-17T18:45:09.879Z,3.58
2023-03-17T18:47:38.638Z,4.20
2023-03-17T18:50:06.977Z,4.53
2023-03-17T18:52:35.265Z,3.47
2023-03-17T18:55:01.871Z,2.58
2023-03-17T18:57:28.625Z,3.45
2023-03-17T18:59:55.872Z,2.35
2023-03-17T19:02:22.444Z,2.65
2023-03-17T19:04:48.957Z,2.45
2023-03-17T19:07:16.392Z,2.70
2023-03-17T19:09:42.982Z,2.45
2023-03-17T19:12:09.830Z,2.88
2023-03-17T19:14:38.403Z,2.88
2023-03-17T19:17:06.123Z,3.53
2023-03-17T19:19:33.276Z,3.53
2023-03-17T19:22:00.753Z,3.10
2023-03-17T19:24:27.530Z,4.03
2023-03-17T19:26:53.986Z,4.15
2023-03-17T19:29:20.550Z,3.67
2023-03-17T19:31:48.574Z,3.85
2023-03-17T19:34:15.351Z,3.67
2023-03-17T19:36:45.751Z,3.42
2023-03-17T19:39:13.092Z,3.35
2023-03-17T19:41:39.820Z,3.90
2023-03-17T19:44:09.108Z,3.30
2023-03-17T19:46:36.947Z,3.33
2023-03-17T19:49:04.746Z,3.72
2023-03-17T19:51:32.829Z,3.95
2023-03-17T19:54:01.793Z,3.30
2023-03-17T19:56:28.315Z,4.45
2023-03-17T19:58:55.338Z,3.83
2023-03-17T20:01:22.731Z,2.67
2023-03-17T20:03:49.245Z,3.85
2023-03-17T20:06:15.790Z,5.63
2023-03-17T20:08:43.162Z,6.35
2023-03-17T20:11:12.039Z,7.60
2023-03-17T20:13:39.323Z,4.43
2023-03-17T20:16:07.180Z,5.35
2023-03-17T20:18:34.129Z,4.03
2023-03-17T20:21:01.588Z,3.30
2023-03-17T20:23:28.157Z,2.67
2023-03-17T20:25:54.646Z,3.47
2023-03-17T20:28:21.600Z,3.20
2023-03-17T20:30:49.241Z,3.45
2023-03-17T20:33:16.420Z,2.92
2023-03-17T20:35:46.467Z,2.90
2023-03-17T20:38:14.492Z,3.03
2023-03-17T20:40:41.749Z,2.72
2023-03-17T20:43:08.441Z,2.72
2023-03-17T20:45:35.048Z,2.95
2023-03-17T20:48:01.994Z,3.50
2023-03-17T20:50:31.123Z,3.10
2023-03-17T20:52:57.976Z,5.05
2023-03-17T20:55:25.226Z,4.60
2023-03-17T20:57:52.701Z,4.05
2023-03-17T21:00:21.220Z,3.92
2023-03-17T21:02:50.196Z,3.67
2023-03-17T21:05:20.869Z,4.68
2023-03-17T21:07:48.527Z,4.20
2023-03-17T21:10:16.606Z,3.75
2023-03-17T21:12:43.347Z,4.60
2023-03-17T21:15:11.091Z,4.25
2023-03-17T21:17:40.257Z,4.18
2023-03-17T21:20:09.456Z,4.15
2023-03-17T21:22:36.790Z,4.20
2023-03-17T21:25:05.017Z,3.83
2023-03-17T21:27:31.501Z,3.72
2023-03-17T21:29:58.006Z,4.55
2023-03-17T21:32:24.625Z,4.03
2023-03-17T21:34:51.340Z,3.92
2023-03-17T21:37:18.542Z,4.10
2023-03-17T21:39:45.786Z,4.78
2023-03-17T21:42:12.659Z,4.38
2023-03-17T21:44:39.542Z,4.45
2023-03-17T21:47:06.056Z,4.18
2023-03-17T21:49:32.535Z,4.60
2023-03-17T21:51:58.965Z,4.43
2023-03-17T21:54:25.591Z,4.72
2023-03-17T21:56:52.652Z,4.80
2023-03-17T21:59:20.857Z,5.00
2023-03-17T22:01:47.855Z,5.05
2023-03-17T22:04:14.364Z,5.10
2023-03-17T22:06:41.202Z,5.00
2023-03-17T22:09:08.525Z,4.22
2023-03-17T22:11:35.016Z,4.40
2023-03-17T22:14:01.934Z,4.38
2023-03-17T22:16:28.846Z,4.15
2023-03-17T22:18:55.441Z,4.18
2023-03-17T22:21:23.455Z,4.15
2023-03-17T22:23:49.965Z,4.53
2023-03-17T22:26:21.314Z,4.30
2023-03-17T22:28:49.629Z,4.50
2023-03-17T22:31:21.930Z,4.35
2023-03-17T22:33:53.889Z,4.45
2023-03-17T22:36:24.052Z,4.53
2023-03-17T22:38:50.583Z,4.70
2023-03-17T22:41:20.516Z,4.30
2023-03-17T22:43:47.138Z,4.05
2023-03-17T22:46:15.690Z,4.03
2023-03-17T22:48:42.225Z,4.67
2023-03-17T22:51:14.458Z,4.30
2023-03-17T22:53:41.174Z,4.43
2023-03-17T22:56:09.073Z,4.88
2023-03-17T22:58:35.722Z,4.50
2023-03-17T23:01:02.600Z,5.55
2023-03-17T23:03:29.744Z,5.22
2023-03-17T23:06:00.016Z,5.00
2023-03-17T23:08:29.285Z,4.50
2023-03-17T23:10:56.737Z,5.10
2023-03-17T23:13:24.083Z,4.43
2023-03-17T23:15:50.545Z,4.82
2023-03-17T23:18:17.184Z,4.28
2023-03-17T23:20:43.661Z,3.97
2023-03-17T23:23:12.118Z,4.80
2023-03-17T23:25:39.051Z,4.57
2023-03-17T23:28:06.755Z,4.72
2023-03-17T23:30:34.608Z,5.00
2023-03-17T23:33:05.165Z,4.53
2023-03-17T23:35:32.009Z,5.65
2023-03-17T23:37:58.584Z,4.78
2023-03-17T23:40:25.071Z,4.30
2023-03-17T23:42:54.362Z,4.53
2023-03-17T23:45:23.156Z,4.35
2023-03-17T23:47:51.506Z,4.97
2023-03-17T23:50:19.299Z,5.10
2023-03-17T23:52:46.459Z,4.72
2023-03-17T23:55:12.945Z,4.35
2023-03-17T23:57:39.406Z,4.40
